Time,TemperatureF,DewpointF,PressureIn,WindDirection,WindDirectionDegrees,WindSpeedMPH,WindSpeedGustMPH,Humidity,HourlyPrecipIn,Conditions,Clouds,dailyrainin,SolarRadiationWatts/m^2,SoftwareType,DateUTC
2013-08-13 00:05:00,67.1,65.0,29.80,West,272,2.0,3.0,93,0.00,,,0.00,0,weatherlink.com 1.10,2013-08-13 04:05:00,
2013-08-13 00:20:00,66.9,65.0,29.80,West,272,2.0,3.0,93,0.00,,,0.00,0,weatherlink.com 1.10,2013-08-13 04:20:00,
2013-08-13 00:35:00,66.8,65.0,29.80,West,272,0.0,3.0,94,0.00,,,0.00,0,weatherlink.com 1.10,2013-08-13 04:35:00,
2013-08-13 00:50:00,66.5,65.0,29.81,West,272,3.0,4.0,94,0.00,,,0.00,0,weatherlink.com 1.10,2013-08-13 04:50:00,
2013-08-13 01:05:00,66.2,65.0,29.80,West,272,2.0,4.0,94,0.00,,,0.00,0,weatherlink.com 1.10,2013-08-13 05:05:00,
2013-08-13 01:20:00,65.7,64.0,29.80,WNW,293,0.0,4.0,95,0.00,,,0.00,0,weatherlink.com 1.10,2013-08-13 05:20:00,
2013-08-13 01:35:00,65.6,65.0,29.81,North,4,0.0,4.0,96,0.00,,,0.00,0,weatherlink.com 1.10,2013-08-13 05:35:00,
2013-08-13 01:50:00,65.5,64.0,29.80,North,4,0.0,4.0,96,0.00,,,0.00,0,weatherlink.com 1.10,2013-08-13 05:50:00,
2013-08-13 02:05:00,65.5,64.0,29.81,NW,312,2.0,6.0,96,0.00,,,0.00,0,weatherlink.com 1.10,2013-08-13 06:05:00,
2013-08-13 02:20:00,65.4,64.0,29.81,NNE,13,4.0,7.0,96,0.00,,,0.00,0,weatherlink.com 1.10,2013-08-13 06:20:00,
2013-08-13 02:35:00,65.4,64.0,29.80,North,354,2.0,6.0,95,0.00,,,0.00,0,weatherlink.com 1.10,2013-08-13 06:35:00,
2013-08-13 02:50:00,65.2,64.0,29.79,NNE,14,2.0,7.0,94,0.00,,,0.00,0,weatherlink.com 1.10,2013-08-13 06:50:00,
2013-08-13 03:05:00,65.0,63.0,29.80,North,349,3.0,7.0,94,0.00,,,0.00,0,weatherlink.com 1.10,2013-08-13 07:05:00,
2013-08-13 03:20:00,64.8,63.0,29.80,NNW,341,2.0,6.0,95,0.00,,,0.00,0,weatherlink.com 1.10,2013-08-13 07:20:00,
2013-08-13 03:35:00,64.7,63.0,29.79,NNW,341,2.0,7.0,95,0.00,,,0.00,0,weatherlink.com 1.10,2013-08-13 07:35:00,
2013-08-13 03:50:00,64.7,63.0,29.80,NNW,347,0.0,6.0,95,0.00,,,0.00,0,weatherlink.com 1.10,2013-08-13 07:50:00,
2013-08-13 04:05:00,64.6,63.0,29.80,NNW,346,2.0,3.0,95,0.00,,,0.00,0,weatherlink.com 1.10,2013-08-13 08:05:00,
2013-08-13 04:20:00,64.5,63.0,29.80,NNW,346,2.0,5.0,95,0.00,,,0.00,0,weatherlink.com 1.10,2013-08-13 08:20:00,
2013-08-13 04:35:00,64.5,63.0,29.80,NNW,345,3.0,6.0,95,0.00,,,0.00,0,weatherlink.com 1.10,2013-08-13 08:35:00,
2013-08-13 04:50:00,64.4,63.0,29.82,NNW,348,7.0,8.0,95,0.00,,,0.00,0,weatherlink.com 1.10,2013-08-13 08:50:00,
2013-08-13 05:05:00,64.3,63.0,29.82,NNW,337,5.0,8.0,95,0.00,,,0.00,0,weatherlink.com 1.10,2013-08-13 09:05:00,
2013-08-13 05:20:00,64.1,62.0,29.82,North,359,3.0,8.0,94,0.00,,,0.00,0,weatherlink.com 1.10,2013-08-13 09:20:00,
2013-08-13 05:35:00,63.7,62.0,29.82,North,354,4.0,8.0,94,0.00,,,0.00,0,weatherlink.com 1.10,2013-08-13 09:35:00,
2013-08-13 05:50:00,63.2,62.0,29.83,NW,305,7.0,8.0,94,0.00,,,0.00,0,weatherlink.com 1.10,2013-08-13 09:50:00,
2013-08-13 06:05:00,62.5,60.0,29.83,North,4,2.0,12.0,92,0.01,,,0.01,0,weatherlink.com 1.10,2013-08-13 10:05:00,
2013-08-13 06:20:00,61.8,59.0,29.83,NNE,16,3.0,10.0,90,0.01,,,0.01,0,weatherlink.com 1.10,2013-08-13 10:20:00,
2013-08-13 06:36:00,61.2,59.0,29.85,NNE,18,4.0,8.0,91,0.01,,,0.01,0,weatherlink.com 1.10,2013-08-13 10:36:00,
2013-08-13 06:51:00,60.7,58.0,29.85,NE,37,6.0,8.0,91,0.01,,,0.01,5,weatherlink.com 1.10,2013-08-13 10:51:00,
2013-08-13 07:06:00,60.4,58.0,29.85,NE,35,1.0,7.0,91,0.00,,,0.01,12,weatherlink.com 1.10,2013-08-13 11:06:00,
2013-08-13 07:21:00,60.4,58.0,29.86,NNE,25,3.0,5.0,91,0.00,,,0.01,25,weatherlink.com 1.10,2013-08-13 11:21:00,
2013-08-13 07:36:00,60.7,58.0,29.87,North,4,5.0,9.0,91,0.00,,,0.01,49,weatherlink.com 1.10,2013-08-13 11:36:00,
2013-08-13 07:51:00,60.7,58.0,29.88,NNE,31,2.0,8.0,91,0.00,,,0.01,56,weatherlink.com 1.10,2013-08-13 11:51:00,
2013-08-13 08:06:00,61.1,58.0,29.89,NNW,341,5.0,7.0,90,0.00,,,0.01,118,weatherlink.com 1.10,2013-08-13 12:06:00,
2013-08-13 08:21:00,61.6,58.0,29.90,North,4,1.0,8.0,89,0.00,,,0.01,142,weatherlink.com 1.10,2013-08-13 12:21:00,
2013-08-13 08:36:00,61.9,58.0,29.89,NNE,16,3.0,9.0,86,0.00,,,0.01,227,weatherlink.com 1.10,2013-08-13 12:36:00,
2013-08-13 08:51:00,62.0,56.0,29.89,NNW,341,3.0,15.0,82,0.00,,,0.01,301,weatherlink.com 1.10,2013-08-13 12:51:00,
2013-08-13 09:06:00,62.1,56.0,29.90,East,100,10.0,13.0,79,0.00,,,0.01,320,weatherlink.com 1.10,2013-08-13 13:06:00,
2013-08-13 09:21:00,61.3,54.0,29.90,North,4,10.0,15.0,77,0.00,,,0.01,357,weatherlink.com 1.10,2013-08-13 13:21:00,
2013-08-13 09:36:00,60.7,53.0,29.91,ENE,60,9.0,15.0,76,0.00,,,0.01,385,weatherlink.com 1.10,2013-08-13 13:36:00,
2013-08-13 09:51:00,60.1,53.0,29.92,NNE,14,4.0,15.0,78,0.00,,,0.01,427,weatherlink.com 1.10,2013-08-13 13:51:00,
2013-08-13 10:06:00,60.4,52.0,29.93,NE,51,6.0,16.0,73,0.00,,,0.01,485,weatherlink.com 1.10,2013-08-13 14:06:00,
2013-08-13 10:21:00,61.3,52.0,29.93,NE,50,5.0,11.0,71,0.00,,,0.01,527,weatherlink.com 1.10,2013-08-13 14:21:00,
2013-08-13 10:36:00,62.1,51.0,29.94,NNE,22,10.0,15.0,68,0.00,,,0.01,571,weatherlink.com 1.10,2013-08-13 14:36:00,
2013-08-13 10:51:00,62.2,51.0,29.94,NNE,22,2.0,12.0,67,0.00,,,0.01,612,weatherlink.com 1.10,2013-08-13 14:51:00,
2013-08-13 11:07:00,63.1,51.0,29.94,NE,45,4.0,12.0,66,0.00,,,0.01,645,weatherlink.com 1.10,2013-08-13 15:07:00,
2013-08-13 11:22:00,64.1,51.0,29.95,NE,35,6.0,13.0,63,0.00,,,0.01,684,weatherlink.com 1.10,2013-08-13 15:22:00,
2013-08-13 11:37:00,64.2,51.0,29.95,NNE,30,11.0,13.0,63,0.00,,,0.01,717,weatherlink.com 1.10,2013-08-13 15:37:00,
2013-08-13 11:52:00,64.6,49.0,29.95,NE,37,8.0,13.0,58,0.00,,,0.01,752,weatherlink.com 1.10,2013-08-13 15:52:00,
2013-08-13 12:07:00,65.3,49.0,29.96,NNW,327,1.0,13.0,57,0.00,,,0.01,786,weatherlink.com 1.10,2013-08-13 16:07:00,
2013-08-13 12:22:00,65.1,48.0,29.95,NNE,18,8.0,13.0,55,0.00,,,0.01,796,weatherlink.com 1.10,2013-08-13 16:22:00,
2013-08-13 12:37:00,65.4,50.0,29.96,North,4,5.0,14.0,57,0.00,,,0.01,842,weatherlink.com 1.10,2013-08-13 16:37:00,
2013-08-13 12:52:00,66.0,49.0,29.96,NNW,340,12.0,16.0,55,0.00,,,0.01,858,weatherlink.com 1.10,2013-08-13 16:52:00,
2013-08-13 13:07:00,66.8,49.0,29.95,NE,52,6.0,15.0,53,0.00,,,0.01,865,weatherlink.com 1.10,2013-08-13 17:07:00,
2013-08-13 13:22:00,66.4,48.0,29.96,North,359,9.0,17.0,51,0.00,,,0.01,879,weatherlink.com 1.10,2013-08-13 17:22:00,
2013-08-13 13:37:00,66.8,48.0,29.95,NNE,25,3.0,16.0,52,0.00,,,0.01,886,weatherlink.com 1.10,2013-08-13 17:37:00,
2013-08-13 13:52:00,67.0,48.0,29.96,NNW,331,1.0,20.0,50,0.00,,,0.01,888,weatherlink.com 1.10,2013-08-13 17:52:00,
2013-08-13 14:07:00,67.7,49.0,29.95,NE,35,5.0,14.0,51,0.00,,,0.01,898,weatherlink.com 1.10,2013-08-13 18:07:00,
2013-08-13 14:22:00,68.0,50.0,29.96,North,11,6.0,17.0,52,0.00,,,0.01,882,weatherlink.com 1.10,2013-08-13 18:22:00,
2013-08-13 14:37:00,67.8,48.0,29.97,North,354,6.0,17.0,50,0.00,,,0.01,877,weatherlink.com 1.10,2013-08-13 18:37:00,
2013-08-13 14:52:00,68.2,49.0,29.97,WNW,299,9.0,16.0,50,0.00,,,0.01,874,weatherlink.com 1.10,2013-08-13 18:52:00,
2013-08-13 15:07:00,67.6,49.0,29.97,NNW,335,4.0,17.0,52,0.00,,,0.01,916,weatherlink.com 1.10,2013-08-13 19:07:00,
2013-08-13 15:22:00,67.6,47.0,29.97,West,274,9.0,17.0,48,0.00,,,0.01,844,weatherlink.com 1.10,2013-08-13 19:22:00,
2013-08-13 15:37:00,68.3,50.0,29.97,NNW,344,4.0,18.0,52,0.00,,,0.01,932,weatherlink.com 1.10,2013-08-13 19:37:00,
2013-08-13 15:52:00,67.6,49.0,29.98,NE,48,5.0,19.0,52,0.00,,,0.01,809,weatherlink.com 1.10,2013-08-13 19:52:00,
2013-08-13 16:07:00,67.6,49.0,29.98,North,4,5.0,19.0,51,0.00,,,0.01,819,weatherlink.com 1.10,2013-08-13 20:07:00,
2013-08-13 16:22:00,67.9,49.0,29.96,WNW,302,5.0,15.0,52,0.00,,,0.01,134,weatherlink.com 1.10,2013-08-13 20:22:00,
2013-08-13 16:37:00,67.8,48.0,29.95,NNW,343,7.0,17.0,50,0.00,,,0.01,737,weatherlink.com 1.10,2013-08-13 20:37:00,
2013-08-13 16:52:00,67.8,49.0,29.96,NNW,335,14.0,17.0,52,0.00,,,0.01,691,weatherlink.com 1.10,2013-08-13 20:52:00,
2013-08-13 17:07:00,67.8,49.0,29.97,North,354,12.0,15.0,52,0.00,,,0.01,127,weatherlink.com 1.10,2013-08-13 21:07:00,
2013-08-13 17:22:00,66.9,49.0,29.97,North,359,9.0,17.0,53,0.00,,,0.01,160,weatherlink.com 1.10,2013-08-13 21:22:00,
2013-08-13 17:37:00,67.9,49.0,29.97,NNW,339,7.0,16.0,52,0.00,,,0.01,564,weatherlink.com 1.10,2013-08-13 21:37:00,
2013-08-13 17:52:00,67.2,49.0,29.97,North,11,6.0,19.0,53,0.00,,,0.01,510,weatherlink.com 1.10,2013-08-13 21:52:00,
2013-08-13 18:07:00,68.0,51.0,29.97,North,349,7.0,14.0,54,0.00,,,0.01,504,weatherlink.com 1.10,2013-08-13 22:07:00,
2013-08-13 18:22:00,67.2,50.0,29.98,NE,43,5.0,15.0,54,0.00,,,0.01,408,weatherlink.com 1.10,2013-08-13 22:22:00,
2013-08-13 18:37:00,67.2,51.0,29.97,North,354,5.0,11.0,56,0.00,,,0.01,359,weatherlink.com 1.10,2013-08-13 22:37:00,
2013-08-13 18:52:00,66.5,50.0,29.98,NW,320,7.0,15.0,56,0.00,,,0.01,322,weatherlink.com 1.10,2013-08-13 22:52:00,
2013-08-13 19:07:00,66.4,50.0,29.98,North,9,7.0,14.0,56,0.00,,,0.01,258,weatherlink.com 1.10,2013-08-13 23:07:00,
2013-08-13 19:22:00,66.3,51.0,29.97,WNW,296,6.0,10.0,58,0.00,,,0.01,207,weatherlink.com 1.10,2013-08-13 23:22:00,
2013-08-13 19:37:00,65.5,50.0,29.98,NNE,23,9.0,14.0,58,0.00,,,0.01,151,weatherlink.com 1.10,2013-08-13 23:37:00,
2013-08-13 19:52:00,64.9,50.0,29.97,NNW,341,3.0,12.0,58,0.00,,,0.01,100,weatherlink.com 1.10,2013-08-13 23:52:00,
2013-08-13 20:07:00,64.1,49.0,29.97,North,350,5.0,12.0,59,0.00,,,0.01,58,weatherlink.com 1.10,2013-08-14 00:07:00,
2013-08-13 20:22:00,63.5,49.0,29.98,NW,308,7.0,12.0,60,0.00,,,0.01,26,weatherlink.com 1.10,2013-08-14 00:22:00,
2013-08-13 20:37:00,62.6,49.0,29.99,NNW,341,3.0,10.0,62,0.00,,,0.01,11,weatherlink.com 1.10,2013-08-14 00:37:00,
2013-08-13 20:53:00,61.9,49.0,29.98,North,4,4.0,8.0,64,0.00,,,0.01,0,weatherlink.com 1.10,2013-08-14 00:53:00,
2013-08-13 21:08:00,61.2,50.0,29.98,NW,314,0.0,7.0,66,0.00,,,0.01,0,weatherlink.com 1.10,2013-08-14 01:08:00,
2013-08-13 21:22:00,60.6,50.0,30.00,NNE,16,1.0,4.0,68,0.00,,,0.01,0,weatherlink.com 1.10,2013-08-14 01:22:00,
2013-08-13 21:39:00,60.2,50.0,30.00,NNE,15,0.0,4.0,69,0.00,,,0.01,0,weatherlink.com 1.10,2013-08-14 01:39:00,
2013-08-13 21:53:00,59.8,50.0,30.00,NNE,15,0.0,4.0,71,0.00,,,0.01,0,weatherlink.com 1.10,2013-08-14 01:53:00,
2013-08-13 22:08:00,59.4,50.0,30.00,NNE,14,0.0,3.0,72,0.00,,,0.01,0,weatherlink.com 1.10,2013-08-14 02:08:00,
2013-08-13 22:23:00,59.2,50.0,30.01,NNW,331,1.0,5.0,72,0.00,,,0.01,0,weatherlink.com 1.10,2013-08-14 02:23:00,
2013-08-13 22:38:00,58.8,50.0,30.01,NNW,330,2.0,4.0,73,0.00,,,0.01,0,weatherlink.com 1.10,2013-08-14 02:38:00,
2013-08-13 22:53:00,58.4,51.0,30.02,NNW,328,3.0,4.0,75,0.00,,,0.01,0,weatherlink.com 1.10,2013-08-14 02:53:00,
2013-08-13 23:08:00,57.8,50.0,30.02,NNW,328,1.0,2.0,76,0.00,,,0.01,0,weatherlink.com 1.10,2013-08-14 03:08:00,
2013-08-13 23:23:00,57.3,51.0,30.02,NNW,328,1.0,4.0,78,0.00,,,0.01,0,weatherlink.com 1.10,2013-08-14 03:23:00,
2013-08-13 23:38:00,57.2,50.0,30.02,NNW,327,0.0,4.0,78,0.00,,,0.01,0,weatherlink.com 1.10,2013-08-14 03:38:00,
2013-08-13 23:53:00,56.9,50.0,30.03,NW,324,1.0,6.0,79,0.00,,,0.01,0,weatherlink.com 1.10,2013-08-14 03:53:00,